sensor_id;sensor_type;location;lat;lon;timestamp;temperature;humidity
18733;DHT22;9495;51.210;2.934;2022-10-16T00:01:07;16.20;99.90
18733;DHT22;9495;51.210;2.934;2022-10-16T00:03:36;16.60;99.90
18733;DHT22;9495;51.210;2.934;2022-10-16T00:06:05;16.50;99.90
18733;DHT22;9495;51.210;2.934;2022-10-16T00:08:34;16.20;99.90
18733;DHT22;9495;51.210;2.934;2022-10-16T00:11:04;16.20;99.90
18733;DHT22;9495;51.210;2.934;2022-10-16T00:13:34;16.20;99.90
18733;DHT22;9495;51.210;2.934;2022-10-16T00:16:03;16.80;99.90
18733;DHT22;9495;51.210;2.934;2022-10-16T00:18:34;16.90;99.90
18733;DHT22;9495;51.210;2.934;2022-10-16T00:21:03;16.80;99.90
18733;DHT22;9495;51.210;2.934;2022-10-16T00:23:31;16.70;99.90
18733;DHT22;9495;51.210;2.934;2022-10-16T00:26:01;16.90;99.90
18733;DHT22;9495;51.210;2.934;2022-10-16T00:28:30;17.10;99.90
18733;DHT22;9495;51.210;2.934;2022-10-16T00:30:59;16.60;99.90
18733;DHT22;9495;51.210;2.934;2022-10-16T00:33:30;16.30;99.90
18733;DHT22;9495;51.210;2.934;2022-10-16T00:36:00;16.80;99.90
18733;DHT22;9495;51.210;2.934;2022-10-16T00:38:28;16.90;99.90
18733;DHT22;9495;51.210;2.934;2022-10-16T00:40:57;17.80;99.90
18733;DHT22;9495;51.210;2.934;2022-10-16T00:43:40;17.90;99.90
18733;DHT22;9495;51.210;2.934;2022-10-16T00:46:15;17.20;99.90
18733;DHT22;9495;51.210;2.934;2022-10-16T00:48:48;17.50;99.90
18733;DHT22;9495;51.210;2.934;2022-10-16T00:51:23;18.20;99.90
18733;DHT22;9495;51.210;2.934;2022-10-16T00:53:53;18.00;99.90
18733;DHT22;9495;51.210;2.934;2022-10-16T00:56:22;17.80;99.90
18733;DHT22;9495;51.210;2.934;2022-10-16T00:58:51;17.60;99.90
18733;DHT22;9495;51.210;2.934;2022-10-16T01:01:19;17.50;99.90
18733;DHT22;9495;51.210;2.934;2022-10-16T01:03:48;17.50;99.90
18733;DHT22;9495;51.210;2.934;2022-10-16T01:06:23;18.20;99.90
18733;DHT22;9495;51.210;2.934;2022-10-16T01:09:02;17.80;99.90
18733;DHT22;9495;51.210;2.934;2022-10-16T01:11:38;18.20;99.90
18733;DHT22;9495;51.210;2.934;2022-10-16T01:14:11;18.30;99.90
18733;DHT22;9495;51.210;2.934;2022-10-16T01:16:46;18.00;99.90
18733;DHT22;9495;51.210;2.934;2022-10-16T01:19:21;18.50;99.90
18733;DHT22;9495;51.210;2.934;2022-10-16T01:21:55;18.50;99.90
18733;DHT22;9495;51.210;2.934;2022-10-16T01:24:32;18.80;99.90
18733;DHT22;9495;51.210;2.934;2022-10-16T01:27:07;18.30;99.90
18733;DHT22;9495;51.210;2.934;2022-10-16T01:29:39;18.90;99.90
18733;DHT22;9495;51.210;2.934;2022-10-16T01:32:15;19.10;99.90
18733;DHT22;9495;51.210;2.934;2022-10-16T01:34:48;19.10;99.90
18733;DHT22;9495;51.210;2.934;2022-10-16T01:37:24;19.20;99.90
18733;DHT22;9495;51.210;2.934;2022-10-16T01:39:57;19.20;99.90
18733;DHT22;9495;51.210;2.934;2022-10-16T01:42:31;19.20;99.90
18733;DHT22;9495;51.210;2.934;2022-10-16T01:45:02;18.20;99.90
18733;DHT22;9495;51.210;2.934;2022-10-16T01:47:35;18.70;99.90
18733;DHT22;9495;51.210;2.934;2022-10-16T01:50:05;19.00;99.90
18733;DHT22;9495;51.210;2.934;2022-10-16T01:52:37;19.20;99.90
18733;DHT22;9495;51.210;2.934;2022-10-16T01:55:08;19.40;99.90
18733;DHT22;9495;51.210;2.934;2022-10-16T01:57:42;19.40;99.90
18733;DHT22;9495;51.210;2.934;2022-10-16T02:00:13;19.20;99.90
18733;DHT22;9495;51.210;2.934;2022-10-16T02:02:44;18.80;99.90
18733;DHT22;9495;51.210;2.934;2022-10-16T02:05:16;18.60;99.90
18733;DHT22;9495;51.210;2.934;2022-10-16T02:07:47;19.10;99.90
18733;DHT22;9495;51.210;2.934;2022-10-16T02:10:16;19.60;99.90
18733;DHT22;9495;51.210;2.934;2022-10-16T02:12:49;19.00;99.90
18733;DHT22;9495;51.210;2.934;2022-10-16T02:15:19;18.70;99.90
18733;DHT22;9495;51.210;2.934;2022-10-16T02:17:47;18.80;99.90
18733;DHT22;9495;51.210;2.934;2022-10-16T02:20:16;18.80;99.90
18733;DHT22;9495;51.210;2.934;2022-10-16T02:22:47;18.70;99.90
18733;DHT22;9495;51.210;2.934;2022-10-16T02:25:19;18.40;99.90
18733;DHT22;9495;51.210;2.934;2022-10-16T02:27:54;18.80;99.90
18733;DHT22;9495;51.210;2.934;2022-10-16T02:30:26;18.40;99.90
18733;DHT22;9495;51.210;2.934;2022-10-16T02:32:57;18.10;99.90
18733;DHT22;9495;51.210;2.934;2022-10-16T02:35:27;17.80;99.90
18733;DHT22;9495;51.210;2.934;2022-10-16T02:37:57;18.10;99.90
18733;DHT22;9495;51.210;2.934;2022-10-16T02:40:26;18.40;99.90
18733;DHT22;9495;51.210;2.934;2022-10-16T02:42:56;18.30;99.90
18733;DHT22;9495;51.210;2.934;2022-10-16T02:45:24;17.90;99.90
18733;DHT22;9495;51.210;2.934;2022-10-16T02:47:53;17.90;99.90
18733;DHT22;9495;51.210;2.934;2022-10-16T02:50:21;18.50;99.90
18733;DHT22;9495;51.210;2.934;2022-10-16T02:52:51;18.80;99.90
18733;DHT22;9495;51.210;2.934;2022-10-16T02:55:20;19.30;99.90
18733;DHT22;9495;51.210;2.934;2022-10-16T02:57:48;18.90;99.90
18733;DHT22;9495;51.210;2.934;2022-10-16T03:00:18;18.90;99.90
18733;DHT22;9495;51.210;2.934;2022-10-16T03:02:46;19.10;99.90
18733;DHT22;9495;51.210;2.934;2022-10-16T03:05:15;18.70;99.90
18733;DHT22;9495;51.210;2.934;2022-10-16T03:07:44;19.00;99.90
18733;DHT22;9495;51.210;2.934;2022-10-16T03:10:12;19.10;99.90
18733;DHT22;9495;51.210;2.934;2022-10-16T03:12:41;18.90;99.90
18733;DHT22;9495;51.210;2.934;2022-10-16T03:15:09;18.10;99.90
18733;DHT22;9495;51.210;2.934;2022-10-16T03:17:39;18.30;99.90
18733;DHT22;9495;51.210;2.934;2022-10-16T03:20:08;18.40;99.90
18733;DHT22;9495;51.210;2.934;2022-10-16T03:22:36;18.60;99.90
18733;DHT22;9495;51.210;2.934;2022-10-16T03:25:05;18.70;99.90
18733;DHT22;9495;51.210;2.934;2022-10-16T03:27:33;18.40;99.90
18733;DHT22;9495;51.210;2.934;2022-10-16T03:30:02;18.30;99.90
18733;DHT22;9495;51.210;2.934;2022-10-16T03:32:30;18.40;99.90
18733;DHT22;9495;51.210;2.934;2022-10-16T03:35:00;18.90;99.90
18733;DHT22;9495;51.210;2.934;2022-10-16T03:37:28;19.20;99.90
18733;DHT22;9495;51.210;2.934;2022-10-16T03:39:56;19.50;99.90
18733;DHT22;9495;51.210;2.934;2022-10-16T03:42:26;19.50;99.90
18733;DHT22;9495;51.210;2.934;2022-10-16T03:44:54;19.40;99.90
18733;DHT22;9495;51.210;2.934;2022-10-16T03:47:22;19.40;99.90
18733;DHT22;9495;51.210;2.934;2022-10-16T03:49:51;19.10;99.90
18733;DHT22;9495;51.210;2.934;2022-10-16T03:52:21;19.00;99.90
18733;DHT22;9495;51.210;2.934;2022-10-16T03:54:49;18.80;99.90
18733;DHT22;9495;51.210;2.934;2022-10-16T03:57:17;19.40;99.90
18733;DHT22;9495;51.210;2.934;2022-10-16T03:59:45;18.90;99.90
18733;DHT22;9495;51.210;2.934;2022-10-16T04:02:14;18.80;99.90
18733;DHT22;9495;51.210;2.934;2022-10-16T04:04:42;18.90;99.90
18733;DHT22;9495;51.210;2.934;2022-10-16T04:07:10;18.90;99.90
18733;DHT22;9495;51.210;2.934;2022-10-16T04:09:40;18.40;99.90
18733;DHT22;9495;51.210;2.934;2022-10-16T04:12:08;18.50;99.90
18733;DHT22;9495;51.210;2.934;2022-10-16T04:14:36;18.60;99.90
18733;DHT22;9495;51.210;2.934;2022-10-16T04:17:05;18.50;99.90
18733;DHT22;9495;51.210;2.934;2022-10-16T04:19:33;18.70;99.90
18733;DHT22;9495;51.210;2.934;2022-10-16T04:22:02;18.40;99.90
18733;DHT22;9495;51.210;2.934;2022-10-16T04:24:30;18.60;99.90
18733;DHT22;9495;51.210;2.934;2022-10-16T04:27:00;18.20;99.90
18733;DHT22;9495;51.210;2.934;2022-10-16T04:29:28;18.00;99.90
18733;DHT22;9495;51.210;2.934;2022-10-16T04:31:57;18.40;99.90
18733;DHT22;9495;51.210;2.934;2022-10-16T04:34:25;18.60;99.90
18733;DHT22;9495;51.210;2.934;2022-10-16T04:36:53;19.00;99.90
18733;DHT22;9495;51.210;2.934;2022-10-16T04:39:21;19.10;99.90
18733;DHT22;9495;51.210;2.934;2022-10-16T04:41:50;18.60;99.90
18733;DHT22;9495;51.210;2.934;2022-10-16T04:44:19;18.70;99.90
18733;DHT22;9495;51.210;2.934;2022-10-16T04:46:49;19.10;99.90
18733;DHT22;9495;51.210;2.934;2022-10-16T04:49:18;18.60;99.90
18733;DHT22;9495;51.210;2.934;2022-10-16T04:51:46;18.80;99.90
18733;DHT22;9495;51.210;2.934;2022-10-16T04:54:14;18.20;99.90
18733;DHT22;9495;51.210;2.934;2022-10-16T04:56:43;18.00;99.90
18733;DHT22;9495;51.210;2.934;2022-10-16T04:59:14;18.70;99.90
18733;DHT22;9495;51.210;2.934;2022-10-16T05:01:44;19.00;99.90
18733;DHT22;9495;51.210;2.934;2022-10-16T05:04:12;18.90;99.90
18733;DHT22;9495;51.210;2.934;2022-10-16T05:06:42;18.80;99.90
18733;DHT22;9495;51.210;2.934;2022-10-16T05:09:11;19.30;99.90
18733;DHT22;9495;51.210;2.934;2022-10-16T05:11:39;18.90;99.90
18733;DHT22;9495;51.210;2.934;2022-10-16T05:14:07;18.40;99.90
18733;DHT22;9495;51.210;2.934;2022-10-16T05:16:40;18.00;99.90
18733;DHT22;9495;51.210;2.934;2022-10-16T05:19:10;17.20;99.90
18733;DHT22;9495;51.210;2.934;2022-10-16T05:21:55;17.30;99.90
18733;DHT22;9495;51.210;2.934;2022-10-16T05:24:23;18.10;99.90
18733;DHT22;9495;51.210;2.934;2022-10-16T05:26:51;18.20;99.90
18733;DHT22;9495;51.210;2.934;2022-10-16T05:29:20;17.90;99.90
18733;DHT22;9495;51.210;2.934;2022-10-16T05:31:50;17.60;99.90
18733;DHT22;9495;51.210;2.934;2022-10-16T05:34:21;17.30;99.90
18733;DHT22;9495;51.210;2.934;2022-10-16T05:36:49;17.20;99.90
18733;DHT22;9495;51.210;2.934;2022-10-16T05:39:18;18.00;99.90
18733;DHT22;9495;51.210;2.934;2022-10-16T05:41:46;17.70;99.90
18733;DHT22;9495;51.210;2.934;2022-10-16T05:44:17;18.00;99.90
18733;DHT22;9495;51.210;2.934;2022-10-16T05:46:46;17.80;99.90
18733;DHT22;9495;51.210;2.934;2022-10-16T05:49:15;17.90;99.90
18733;DHT22;9495;51.210;2.934;2022-10-16T05:51:44;17.60;99.90
18733;DHT22;9495;51.210;2.934;2022-10-16T05:54:13;16.90;99.90
18733;DHT22;9495;51.210;2.934;2022-10-16T05:56:41;16.80;99.90
18733;DHT22;9495;51.210;2.934;2022-10-16T05:59:09;17.20;99.90
18733;DHT22;9495;51.210;2.934;2022-10-16T06:01:38;16.80;99.90
18733;DHT22;9495;51.210;2.934;2022-10-16T06:04:07;17.10;99.90
18733;DHT22;9495;51.210;2.934;2022-10-16T06:06:40;17.60;99.90
18733;DHT22;9495;51.210;2.934;2022-10-16T06:09:10;17.10;99.90
18733;DHT22;9495;51.210;2.934;2022-10-16T06:11:39;17.70;99.90
18733;DHT22;9495;51.210;2.934;2022-10-16T06:14:08;17.10;99.90
18733;DHT22;9495;51.210;2.934;2022-10-16T06:16:37;16.70;99.90
18733;DHT22;9495;51.210;2.934;2022-10-16T06:19:06;16.90;99.90
18733;DHT22;9495;51.210;2.934;2022-10-16T06:21:36;17.00;99.90
18733;DHT22;9495;51.210;2.934;2022-10-16T06:24:04;16.90;99.90
18733;DHT22;9495;51.210;2.934;2022-10-16T06:26:34;16.50;99.90
18733;DHT22;9495;51.210;2.934;2022-10-16T06:29:02;16.50;99.90
18733;DHT22;9495;51.210;2.934;2022-10-16T06:31:31;16.20;99.90
18733;DHT22;9495;51.210;2.934;2022-10-16T06:34:00;16.10;99.90
18733;DHT22;9495;51.210;2.934;2022-10-16T06:36:31;15.50;99.90
18733;DHT22;9495;51.210;2.934;2022-10-16T06:39:00;16.00;99.90
18733;DHT22;9495;51.210;2.934;2022-10-16T06:41:28;15.90;99.90
18733;DHT22;9495;51.210;2.934;2022-10-16T06:43:57;15.80;99.90
18733;DHT22;9495;51.210;2.934;2022-10-16T06:46:26;15.50;99.90
18733;DHT22;9495;51.210;2.934;2022-10-16T06:48:55;15.20;99.90
18733;DHT22;9495;51.210;2.934;2022-10-16T06:51:24;15.20;99.90
18733;DHT22;9495;51.210;2.934;2022-10-16T06:53:54;15.30;99.90
18733;DHT22;9495;51.210;2.934;2022-10-16T06:56:32;15.00;99.90
18733;DHT22;9495;51.210;2.934;2022-10-16T06:59:02;15.10;99.90
18733;DHT22;9495;51.210;2.934;2022-10-16T07:01:31;15.40;99.90
18733;DHT22;9495;51.210;2.934;2022-10-16T07:04:00;15.10;99.90
18733;DHT22;9495;51.210;2.934;2022-10-16T07:06:31;14.80;99.90
18733;DHT22;9495;51.210;2.934;2022-10-16T07:09:03;15.40;99.90
18733;DHT22;9495;51.210;2.934;2022-10-16T07:11:31;15.20;99.90
18733;DHT22;9495;51.210;2.934;2022-10-16T07:14:00;15.10;99.90
18733;DHT22;9495;51.210;2.934;2022-10-16T07:16:30;15.60;99.90
18733;DHT22;9495;51.210;2.934;2022-10-16T07:19:00;15.20;99.90
18733;DHT22;9495;51.210;2.934;2022-10-16T07:21:30;15.50;99.90
18733;DHT22;9495;51.210;2.934;2022-10-16T07:24:02;15.40;99.90
18733;DHT22;9495;51.210;2.934;2022-10-16T07:26:33;15.50;99.90
18733;DHT22;9495;51.210;2.934;2022-10-16T07:29:02;15.10;99.90
18733;DHT22;9495;51.210;2.934;2022-10-16T07:31:32;15.10;99.90
18733;DHT22;9495;51.210;2.934;2022-10-16T07:34:01;14.90;99.90
18733;DHT22;9495;51.210;2.934;2022-10-16T07:36:29;15.10;99.90
18733;DHT22;9495;51.210;2.934;2022-10-16T07:38:58;14.90;99.90
18733;DHT22;9495;51.210;2.934;2022-10-16T07:41:27;15.00;99.90
18733;DHT22;9495;51.210;2.934;2022-10-16T07:43:55;15.10;99.90
18733;DHT22;9495;51.210;2.934;2022-10-16T07:46:27;15.60;99.90
18733;DHT22;9495;51.210;2.934;2022-10-16T07:48:57;15.60;99.90
18733;DHT22;9495;51.210;2.934;2022-10-16T07:51:26;15.70;99.90
18733;DHT22;9495;51.210;2.934;2022-10-16T07:53:54;15.60;99.90
18733;DHT22;9495;51.210;2.934;2022-10-16T07:56:23;16.00;99.90
18733;DHT22;9495;51.210;2.934;2022-10-16T07:58:52;15.80;99.90
18733;DHT22;9495;51.210;2.934;2022-10-16T08:01:20;15.60;99.90
18733;DHT22;9495;51.210;2.934;2022-10-16T08:03:50;15.80;99.90
18733;DHT22;9495;51.210;2.934;2022-10-16T08:06:21;15.90;99.90
18733;DHT22;9495;51.210;2.934;2022-10-16T08:08:54;16.20;99.90
18733;DHT22;9495;51.210;2.934;2022-10-16T08:11:22;15.80;99.90
18733;DHT22;9495;51.210;2.934;2022-10-16T08:13:51;15.70;99.90
18733;DHT22;9495;51.210;2.934;2022-10-16T08:16:19;15.60;99.90
18733;DHT22;9495;51.210;2.934;2022-10-16T08:18:48;15.70;99.90
18733;DHT22;9495;51.210;2.934;2022-10-16T08:21:21;15.60;99.90
18733;DHT22;9495;51.210;2.934;2022-10-16T08:23:50;15.70;99.90
18733;DHT22;9495;51.210;2.934;2022-10-16T08:26:24;15.50;99.90
18733;DHT22;9495;51.210;2.934;2022-10-16T08:28:54;15.60;99.90
18733;DHT22;9495;51.210;2.934;2022-10-16T08:31:23;15.60;99.90
18733;DHT22;9495;51.210;2.934;2022-10-16T08:33:53;15.80;99.90
18733;DHT22;9495;51.210;2.934;2022-10-16T08:36:23;15.70;99.90
18733;DHT22;9495;51.210;2.934;2022-10-16T08:38:51;15.70;99.90
18733;DHT22;9495;51.210;2.934;2022-10-16T08:42:04;15.60;99.90
18733;DHT22;9495;51.210;2.934;2022-10-16T08:47:48;15.40;99.90
18733;DHT22;9495;51.210;2.934;2022-10-16T08:50:22;15.50;99.90
18733;DHT22;9495;51.210;2.934;2022-10-16T08:52:53;15.50;99.90
18733;DHT22;9495;51.210;2.934;2022-10-16T08:55:31;15.80;99.90
18733;DHT22;9495;51.210;2.934;2022-10-16T08:58:01;15.80;99.90
18733;DHT22;9495;51.210;2.934;2022-10-16T09:00:30;15.90;99.90
18733;DHT22;9495;51.210;2.934;2022-10-16T09:03:05;16.00;99.90
18733;DHT22;9495;51.210;2.934;2022-10-16T09:05:49;15.90;99.90
18733;DHT22;9495;51.210;2.934;2022-10-16T09:08:29;15.80;99.90
18733;DHT22;9495;51.210;2.934;2022-10-16T09:11:03;15.90;99.90
18733;DHT22;9495;51.210;2.934;2022-10-16T09:13:40;15.80;99.90
18733;DHT22;9495;51.210;2.934;2022-10-16T09:16:17;15.70;99.90
18733;DHT22;9495;51.210;2.934;2022-10-16T09:18:54;15.80;99.90
18733;DHT22;9495;51.210;2.934;2022-10-16T09:21:28;15.80;99.90
18733;DHT22;9495;51.210;2.934;2022-10-16T09:24:00;15.90;99.90
18733;DHT22;9495;51.210;2.934;2022-10-16T09:26:33;15.90;99.90
18733;DHT22;9495;51.210;2.934;2022-10-16T09:29:01;16.00;99.90
18733;DHT22;9495;51.210;2.934;2022-10-16T09:31:30;15.90;99.90
18733;DHT22;9495;51.210;2.934;2022-10-16T09:34:00;16.00;99.90
18733;DHT22;9495;51.210;2.934;2022-10-16T09:36:36;15.90;99.90
18733;DHT22;9495;51.210;2.934;2022-10-16T09:39:10;16.00;99.90
18733;DHT22;9495;51.210;2.934;2022-10-16T09:41:40;16.00;99.90
18733;DHT22;9495;51.210;2.934;2022-10-16T09:44:19;16.00;99.90
18733;DHT22;9495;51.210;2.934;2022-10-16T09:46:49;16.10;99.90
18733;DHT22;9495;51.210;2.934;2022-10-16T09:49:22;16.20;99.90
18733;DHT22;9495;51.210;2.934;2022-10-16T09:52:02;16.10;99.90
18733;DHT22;9495;51.210;2.934;2022-10-16T09:54:32;16.10;99.90
18733;DHT22;9495;51.210;2.934;2022-10-16T09:57:05;16.30;99.90
18733;DHT22;9495;51.210;2.934;2022-10-16T09:59:33;16.40;99.90
18733;DHT22;9495;51.210;2.934;2022-10-16T10:02:04;16.40;99.90
18733;DHT22;9495;51.210;2.934;2022-10-16T10:04:40;16.40;99.90
18733;DHT22;9495;51.210;2.934;2022-10-16T10:07:18;16.40;99.90
18733;DHT22;9495;51.210;2.934;2022-10-16T10:09:49;16.40;99.90
18733;DHT22;9495;51.210;2.934;2022-10-16T10:12:19;16.50;99.90
18733;DHT22;9495;51.210;2.934;2022-10-16T10:14:53;17.70;99.90
18733;DHT22;9495;51.210;2.934;2022-10-16T10:17:24;18.50;99.90
18733;DHT22;9495;51.210;2.934;2022-10-16T10:19:54;19.00;99.90
18733;DHT22;9495;51.210;2.934;2022-10-16T10:22:29;19.10;99.90
18733;DHT22;9495;51.210;2.934;2022-10-16T10:25:18;19.20;99.90
18733;DHT22;9495;51.210;2.934;2022-10-16T10:27:56;19.40;99.90
18733;DHT22;9495;51.210;2.934;2022-10-16T10:30:35;19.50;99.90
18733;DHT22;9495;51.210;2.934;2022-10-16T10:33:27;19.50;99.90
18733;DHT22;9495;51.210;2.934;2022-10-16T10:36:05;19.50;99.90
18733;DHT22;9495;51.210;2.934;2022-10-16T10:38:42;19.60;99.90
18733;DHT22;9495;51.210;2.934;2022-10-16T10:41:54;19.50;99.90
18733;DHT22;9495;51.210;2.934;2022-10-16T10:44:35;19.50;99.90
18733;DHT22;9495;51.210;2.934;2022-10-16T10:47:13;19.40;99.90
18733;DHT22;9495;51.210;2.934;2022-10-16T10:49:54;19.60;99.90
18733;DHT22;9495;51.210;2.934;2022-10-16T10:52:38;19.80;99.90
18733;DHT22;9495;51.210;2.934;2022-10-16T10:55:20;19.30;99.90
18733;DHT22;9495;51.210;2.934;2022-10-16T10:58:04;18.70;99.90
18733;DHT22;9495;51.210;2.934;2022-10-16T11:00:42;18.40;99.90
18733;DHT22;9495;51.210;2.934;2022-10-16T11:03:26;18.30;99.90
18733;DHT22;9495;51.210;2.934;2022-10-16T11:05:59;18.20;99.90
18733;DHT22;9495;51.210;2.934;2022-10-16T11:08:31;18.10;99.90
18733;DHT22;9495;51.210;2.934;2022-10-16T11:11:03;18.40;99.90
18733;DHT22;9495;51.210;2.934;2022-10-16T11:13:38;18.40;99.90
18733;DHT22;9495;51.210;2.934;2022-10-16T11:16:14;18.30;99.90
18733;DHT22;9495;51.210;2.934;2022-10-16T11:18:51;18.30;99.90
18733;DHT22;9495;51.210;2.934;2022-10-16T11:21:21;18.20;99.90
18733;DHT22;9495;51.210;2.934;2022-10-16T11:24:01;18.20;99.90
18733;DHT22;9495;51.210;2.934;2022-10-16T11:26:35;18.70;99.90
18733;DHT22;9495;51.210;2.934;2022-10-16T11:29:15;19.10;99.90
18733;DHT22;9495;51.210;2.934;2022-10-16T11:31:48;19.20;99.90
18733;DHT22;9495;51.210;2.934;2022-10-16T11:34:23;19.10;99.90
18733;DHT22;9495;51.210;2.934;2022-10-16T11:36:57;19.30;99.90
18733;DHT22;9495;51.210;2.934;2022-10-16T11:39:28;19.20;99.90
18733;DHT22;9495;51.210;2.934;2022-10-16T11:42:02;19.40;99.90
18733;DHT22;9495;51.210;2.934;2022-10-16T11:44:42;19.00;99.90
18733;DHT22;9495;51.210;2.934;2022-10-16T11:47:27;18.70;99.90
18733;DHT22;9495;51.210;2.934;2022-10-16T11:50:23;18.70;99.90
18733;DHT22;9495;51.210;2.934;2022-10-16T11:52:57;18.80;99.90
18733;DHT22;9495;51.210;2.934;2022-10-16T11:55:32;18.60;99.90
18733;DHT22;9495;51.210;2.934;2022-10-16T11:58:05;18.80;99.90
18733;DHT22;9495;51.210;2.934;2022-10-16T12:00:40;18.70;99.90
18733;DHT22;9495;51.210;2.934;2022-10-16T12:03:17;19.00;99.90
18733;DHT22;9495;51.210;2.934;2022-10-16T12:05:57;19.30;99.90
18733;DHT22;9495;51.210;2.934;2022-10-16T12:08:27;18.90;99.90
18733;DHT22;9495;51.210;2.934;2022-10-16T12:11:07;18.60;99.90
18733;DHT22;9495;51.210;2.934;2022-10-16T12:13:37;18.60;99.90
18733;DHT22;9495;51.210;2.934;2022-10-16T12:16:22;18.50;99.90
18733;DHT22;9495;51.210;2.934;2022-10-16T12:19:09;18.40;99.90
18733;DHT22;9495;51.210;2.934;2022-10-16T12:21:39;18.50;99.90
18733;DHT22;9495;51.210;2.934;2022-10-16T12:24:21;18.50;99.90
18733;DHT22;9495;51.210;2.934;2022-10-16T12:26:52;19.10;99.90
18733;DHT22;9495;51.210;2.934;2022-10-16T12:29:31;19.30;99.90
18733;DHT22;9495;51.210;2.934;2022-10-16T12:32:03;19.50;99.90
18733;DHT22;9495;51.210;2.934;2022-10-16T12:34:38;19.20;99.90
18733;DHT22;9495;51.210;2.934;2022-10-16T12:37:13;19.00;99.90
18733;DHT22;9495;51.210;2.934;2022-10-16T12:39:42;19.10;99.90
18733;DHT22;9495;51.210;2.934;2022-10-16T12:42:23;18.80;99.90
18733;DHT22;9495;51.210;2.934;2022-10-16T12:44:52;19.00;99.90
18733;DHT22;9495;51.210;2.934;2022-10-16T12:47:23;18.90;99.90
18733;DHT22;9495;51.210;2.934;2022-10-16T12:50:03;18.80;99.90
18733;DHT22;9495;51.210;2.934;2022-10-16T12:52:50;18.90;99.90
18733;DHT22;9495;51.210;2.934;2022-10-16T12:55:20;18.90;99.90
18733;DHT22;9495;51.210;2.934;2022-10-16T12:58:06;18.90;99.90
18733;DHT22;9495;51.210;2.934;2022-10-16T13:00:44;18.90;99.90
18733;DHT22;9495;51.210;2.934;2022-10-16T13:03:48;18.90;99.90
18733;DHT22;9495;51.210;2.934;2022-10-16T13:06:30;18.90;99.90
18733;DHT22;9495;51.210;2.934;2022-10-16T13:09:27;18.90;99.90
18733;DHT22;9495;51.210;2.934;2022-10-16T13:12:25;19.00;99.90
18733;DHT22;9495;51.210;2.934;2022-10-16T13:15:19;19.00;99.90
18733;DHT22;9495;51.210;2.934;2022-10-16T13:17:55;18.90;99.90
18733;DHT22;9495;51.210;2.934;2022-10-16T13:20:33;19.00;99.90
18733;DHT22;9495;51.210;2.934;2022-10-16T13:23:15;18.90;99.90
18733;DHT22;9495;51.210;2.934;2022-10-16T13:25:53;18.90;99.90
18733;DHT22;9495;51.210;2.934;2022-10-16T13:28:29;18.90;99.90
18733;DHT22;9495;51.210;2.934;2022-10-16T13:30:59;18.90;99.90
18733;DHT22;9495;51.210;2.934;2022-10-16T13:33:33;18.90;99.90
18733;DHT22;9495;51.210;2.934;2022-10-16T13:36:05;19.00;99.90
18733;DHT22;9495;51.210;2.934;2022-10-16T13:38:35;19.00;99.90
18733;DHT22;9495;51.210;2.934;2022-10-16T13:41:05;19.00;99.90
18733;DHT22;9495;51.210;2.934;2022-10-16T13:43:35;19.10;99.90
18733;DHT22;9495;51.210;2.934;2022-10-16T13:46:05;19.00;99.90
18733;DHT22;9495;51.210;2.934;2022-10-16T13:48:36;19.10;99.90
18733;DHT22;9495;51.210;2.934;2022-10-16T13:51:10;19.00;99.90
18733;DHT22;9495;51.210;2.934;2022-10-16T13:53:40;19.30;99.90
18733;DHT22;9495;51.210;2.934;2022-10-16T13:56:11;19.40;99.90
18733;DHT22;9495;51.210;2.934;2022-10-16T13:58:40;19.40;99.90
18733;DHT22;9495;51.210;2.934;2022-10-16T14:01:16;19.30;99.90
18733;DHT22;9495;51.210;2.934;2022-10-16T14:03:46;19.20;99.90
18733;DHT22;9495;51.210;2.934;2022-10-16T14:06:18;19.30;99.90
18733;DHT22;9495;51.210;2.934;2022-10-16T14:08:53;19.20;99.90
18733;DHT22;9495;51.210;2.934;2022-10-16T14:11:23;19.40;99.90
18733;DHT22;9495;51.210;2.934;2022-10-16T14:13:52;19.50;99.90
18733;DHT22;9495;51.210;2.934;2022-10-16T14:16:23;19.30;99.90
18733;DHT22;9495;51.210;2.934;2022-10-16T14:18:57;19.50;99.90
18733;DHT22;9495;51.210;2.934;2022-10-16T14:21:27;19.40;99.90
18733;DHT22;9495;51.210;2.934;2022-10-16T14:23:56;19.40;99.90
18733;DHT22;9495;51.210;2.934;2022-10-16T14:26:27;19.20;99.90
18733;DHT22;9495;51.210;2.934;2022-10-16T14:29:10;19.30;99.90
18733;DHT22;9495;51.210;2.934;2022-10-16T14:31:39;19.30;99.90
18733;DHT22;9495;51.210;2.934;2022-10-16T14:34:26;19.30;99.90
18733;DHT22;9495;51.210;2.934;2022-10-16T14:36:57;19.20;99.90
18733;DHT22;9495;51.210;2.934;2022-10-16T14:39:28;19.20;99.90
18733;DHT22;9495;51.210;2.934;2022-10-16T14:41:58;19.20;99.90
18733;DHT22;9495;51.210;2.934;2022-10-16T14:44:32;19.10;99.90
18733;DHT22;9495;51.210;2.934;2022-10-16T14:47:08;19.20;99.90
18733;DHT22;9495;51.210;2.934;2022-10-16T14:49:37;19.40;99.90
18733;DHT22;9495;51.210;2.934;2022-10-16T14:52:10;19.20;99.90
18733;DHT22;9495;51.210;2.934;2022-10-16T14:54:39;19.10;99.90
18733;DHT22;9495;51.210;2.934;2022-10-16T14:57:16;19.10;99.90
18733;DHT22;9495;51.210;2.934;2022-10-16T14:59:46;19.30;99.90
18733;DHT22;9495;51.210;2.934;2022-10-16T15:02:20;19.20;99.90
18733;DHT22;9495;51.210;2.934;2022-10-16T15:04:50;19.10;99.90
18733;DHT22;9495;51.210;2.934;2022-10-16T15:07:20;19.00;99.90
18733;DHT22;9495;51.210;2.934;2022-10-16T15:09:49;19.00;99.90
18733;DHT22;9495;51.210;2.934;2022-10-16T15:12:17;19.00;99.90
18733;DHT22;9495;51.210;2.934;2022-10-16T15:14:45;19.00;99.90
18733;DHT22;9495;51.210;2.934;2022-10-16T15:17:13;18.90;99.90
18733;DHT22;9495;51.210;2.934;2022-10-16T15:19:45;19.00;99.90
18733;DHT22;9495;51.210;2.934;2022-10-16T15:22:14;18.90;99.90
18733;DHT22;9495;51.210;2.934;2022-10-16T15:24:43;18.90;99.90
18733;DHT22;9495;51.210;2.934;2022-10-16T15:27:12;18.90;99.90
18733;DHT22;9495;51.210;2.934;2022-10-16T15:29:40;18.80;99.90
18733;DHT22;9495;51.210;2.934;2022-10-16T15:32:09;18.80;99.90
18733;DHT22;9495;51.210;2.934;2022-10-16T15:34:37;18.90;99.90
18733;DHT22;9495;51.210;2.934;2022-10-16T15:37:06;18.90;99.90
18733;DHT22;9495;51.210;2.934;2022-10-16T15:39:34;18.80;99.90
18733;DHT22;9495;51.210;2.934;2022-10-16T15:42:08;18.80;99.90
18733;DHT22;9495;51.210;2.934;2022-10-16T15:44:36;19.00;99.90
18733;DHT22;9495;51.210;2.934;2022-10-16T15:47:05;18.80;99.90
18733;DHT22;9495;51.210;2.934;2022-10-16T15:49:33;18.90;99.90
18733;DHT22;9495;51.210;2.934;2022-10-16T15:52:01;18.90;99.90
18733;DHT22;9495;51.210;2.934;2022-10-16T15:54:31;19.00;99.90
18733;DHT22;9495;51.210;2.934;2022-10-16T15:56:59;19.20;99.90
18733;DHT22;9495;51.210;2.934;2022-10-16T15:59:29;18.90;99.90
18733;DHT22;9495;51.210;2.934;2022-10-16T16:01:57;19.00;99.90
18733;DHT22;9495;51.210;2.934;2022-10-16T16:04:25;18.80;99.90
18733;DHT22;9495;51.210;2.934;2022-10-16T16:07:11;18.80;99.90
18733;DHT22;9495;51.210;2.934;2022-10-16T16:09:39;18.70;99.90
18733;DHT22;9495;51.210;2.934;2022-10-16T16:12:07;18.70;99.90
18733;DHT22;9495;51.210;2.934;2022-10-16T16:14:37;18.60;99.90
18733;DHT22;9495;51.210;2.934;2022-10-16T16:17:05;18.50;99.90
18733;DHT22;9495;51.210;2.934;2022-10-16T16:19:34;18.40;99.90